Time;durP1;ratioP1;P1;durP2;ratioP2;P2;SDS_P1;SDS_P2;PMS_P1;PMS_P2;Temp;Humidity;BMP_temperature;BMP_pressure;BME280_temperature;BME280_humidity;BME280_pressure;Samples;Min_cycle;Max_cycle;Signal;HPM_P1;HPM_P2
2021/10/02 00:35:49;;;;;;;6.93;5.63;;;15.70;99.90;;;;;;5015594;28;20600;-81
2021/10/02 00:38:14;;;;;;;7.95;5.57;;;15.70;99.90;;;;;;5014630;28;20192;-80
2021/10/02 00:46:14;;;;;;;8.27;5.78;;;15.70;99.90;;;;;;4978088;28;20184;-79
2021/10/02 00:48:40;;;;;;;13.98;6.68;;;15.80;99.90;;;;;;5014858;28;20576;-82
2021/10/02 00:51:07;;;;;;;9.52;6.82;;;15.80;99.90;;;;;;5014934;28;20165;-80
2021/10/02 00:53:33;;;;;;;14.70;7.07;;;15.60;99.90;;;;;;5014607;28;20536;-79
2021/10/02 00:55:59;;;;;;;14.25;6.90;;;15.50;99.90;;;;;;5015169;28;20207;-79
2021/10/02 00:58:24;;;;;;;9.10;6.97;;;15.50;99.90;;;;;;5014736;28;20659;-80
2021/10/02 01:00:55;;;;;;;8.18;7.20;;;15.60;99.90;;;;;;5014499;28;20198;-83
2021/10/02 01:06:24;;;;;;;13.05;7.13;;;15.50;99.90;;;;;;4995804;28;20185;-79
2021/10/02 01:09:33;;;;;;;10.95;7.53;;;15.50;99.90;;;;;;4995569;28;20290;-81
2021/10/02 01:12:08;;;;;;;7.28;6.22;;;15.50;99.90;;;;;;5012231;28;20275;-79
2021/10/02 01:14:50;;;;;;;9.05;7.25;;;15.50;99.90;;;;;;5012163;28;20176;-82
2021/10/02 01:17:29;;;;;;;13.30;7.03;;;15.40;99.90;;;;;;5012017;28;20266;-79
2021/10/02 01:20:04;;;;;;;9.50;6.55;;;15.40;99.90;;;;;;5012055;28;20262;-79
2021/10/02 01:22:41;;;;;;;14.82;6.80;;;15.20;99.90;;;;;;5012370;28;20175;-79
2021/10/02 01:25:42;;;;;;;11.00;6.15;;;15.40;99.90;;;;;;5012196;28;20183;-83
2021/10/02 01:28:14;;;;;;;6.15;5.65;;;15.40;99.90;;;;;;5012232;28;20331;-80
2021/10/02 01:36:38;;;;;;;16.05;7.05;;;15.30;99.90;;;;;;5009142;28;20208;-81
2021/10/02 01:47:34;;;;;;;8.15;5.80;;;15.40;99.90;;;;;;5014468;28;20183;-83
2021/10/02 01:50:00;;;;;;;9.93;6.68;;;15.40;99.90;;;;;;5022450;28;20196;-78
2021/10/02 01:52:32;;;;;;;10.88;5.60;;;15.30;99.90;;;;;;5022124;28;20173;-78
2021/10/02 01:54:59;;;;;;;8.00;5.32;;;15.10;99.90;;;;;;5024417;28;20157;-80
2021/10/02 01:57:34;;;;;;;10.07;5.80;;;15.00;99.90;;;;;;5024410;28;20243;-78
2021/10/02 02:00:09;;;;;;;10.45;5.72;;;15.10;99.90;;;;;;5025099;28;20572;-79
2021/10/02 02:02:36;;;;;;;8.50;5.85;;;15.10;99.90;;;;;;5025621;28;20168;-79
2021/10/02 02:05:07;;;;;;;9.48;5.88;;;15.10;99.90;;;;;;5025522;28;20218;-78
2021/10/02 02:07:35;;;;;;;9.02;6.05;;;15.20;99.90;;;;;;5028143;28;20161;-78
2021/10/02 02:10:04;;;;;;;6.97;6.28;;;15.00;99.90;;;;;;5034510;28;20176;-77
2021/10/02 02:12:32;;;;;;;11.73;5.63;;;14.80;99.90;;;;;;5026763;28;20168;-78
2021/10/02 02:15:09;;;;;;;10.25;5.50;;;14.80;99.90;;;;;;5012112;28;20639;-78
2021/10/02 02:17:39;;;;;;;7.95;5.95;;;14.90;99.90;;;;;;5012983;28;20218;-80
2021/10/02 02:20:07;;;;;;;11.25;5.63;;;14.90;99.90;;;;;;5012657;28;20185;-78
2021/10/02 02:22:33;;;;;;;18.55;5.80;;;14.80;99.90;;;;;;5012988;28;20195;-78
2021/10/02 02:24:59;;;;;;;11.32;5.95;;;14.90;99.90;;;;;;5013320;28;20251;-84
2021/10/02 02:27:25;;;;;;;11.07;6.25;;;14.80;99.90;;;;;;5013757;28;20173;-80
2021/10/02 02:29:51;;;;;;;9.63;5.60;;;14.90;99.90;;;;;;5013690;28;20216;-83
2021/10/02 02:32:20;;;;;;;10.15;5.97;;;14.70;99.90;;;;;;5012427;28;20219;-82
2021/10/02 02:34:47;;;;;;;12.38;5.47;;;14.70;99.90;;;;;;5013799;28;20172;-81
2021/10/02 02:37:12;;;;;;;11.40;5.18;;;14.60;99.90;;;;;;5013977;28;20219;-81
2021/10/02 02:39:38;;;;;;;5.78;5.15;;;14.60;99.90;;;;;;5013681;28;20188;-83
2021/10/02 02:42:04;;;;;;;13.68;6.07;;;14.60;99.90;;;;;;5013293;28;20179;-82
2021/10/02 02:44:30;;;;;;;6.82;5.25;;;14.60;99.90;;;;;;5013410;28;20629;-79
2021/10/02 02:47:02;;;;;;;7.15;5.20;;;14.70;99.90;;;;;;5013208;28;20271;-81
2021/10/02 02:49:49;;;;;;;8.57;5.75;;;14.80;99.90;;;;;;5013084;28;20189;-80
2021/10/02 02:52:20;;;;;;;7.95;6.40;;;14.90;99.90;;;;;;5013512;28;20177;-85
2021/10/02 02:55:03;;;;;;;16.25;5.88;;;14.90;99.90;;;;;;5012786;28;20169;-79
2021/10/02 02:57:34;;;;;;;8.07;5.15;;;14.60;99.90;;;;;;5012827;28;20235;-79
2021/10/02 03:00:20;;;;;;;12.80;6.35;;;14.70;99.90;;;;;;5012701;28;20185;-80
2021/10/02 03:03:05;;;;;;;9.23;5.32;;;14.90;99.90;;;;;;5013244;28;20172;-86
2021/10/02 03:05:32;;;;;;;9.93;6.47;;;14.80;99.90;;;;;;5015931;28;20172;-85
2021/10/02 03:08:04;;;;;;;13.10;6.50;;;14.80;99.90;;;;;;5016825;28;20621;-82
2021/10/02 03:10:31;;;;;;;11.00;6.60;;;14.80;99.90;;;;;;5031605;28;20184;-79
2021/10/02 03:13:02;;;;;;;10.55;5.75;;;14.90;99.90;;;;;;5016791;28;20276;-80
2021/10/02 03:15:29;;;;;;;8.93;6.25;;;14.80;99.90;;;;;;5016820;28;20164;-82
2021/10/02 03:17:57;;;;;;;8.13;6.20;;;14.80;99.90;;;;;;5016636;28;20187;-84
2021/10/02 03:20:24;;;;;;;12.98;6.90;;;14.90;99.90;;;;;;5016516;28;20180;-80
2021/10/02 03:22:53;;;;;;;7.38;6.30;;;14.80;99.90;;;;;;5016707;28;20173;-83
2021/10/02 03:25:22;;;;;;;17.08;7.25;;;15.00;99.90;;;;;;5016330;28;20200;-84
2021/10/02 03:27:49;;;;;;;12.60;7.28;;;15.10;99.90;;;;;;5015480;28;20252;-81
2021/10/02 03:30:15;;;;;;;6.63;6.05;;;15.10;99.90;;;;;;5017301;28;20185;-82
2021/10/02 03:32:43;;;;;;;11.30;6.57;;;15.00;99.90;;;;;;5016289;28;20191;-83
2021/10/02 03:35:09;;;;;;;11.07;6.97;;;14.90;99.90;;;;;;5015226;28;20251;-83
2021/10/02 03:37:35;;;;;;;12.63;5.90;;;15.00;99.90;;;;;;5015044;28;20200;-84
2021/10/02 03:40:04;;;;;;;11.32;7.53;;;14.90;99.90;;;;;;5014542;28;20595;-83
2021/10/02 03:42:30;;;;;;;7.00;6.13;;;14.80;99.90;;;;;;5015087;28;20172;-81
2021/10/02 03:44:55;;;;;;;8.50;6.57;;;14.80;99.90;;;;;;5014993;28;20692;-82
2021/10/02 03:47:22;;;;;;;12.27;7.05;;;14.70;99.90;;;;;;5015004;28;20180;-81
2021/10/02 03:49:49;;;;;;;10.07;6.30;;;14.70;99.90;;;;;;5015666;28;20263;-80
2021/10/02 03:52:15;;;;;;;9.52;6.80;;;14.70;99.90;;;;;;5014761;28;20204;-87
2021/10/02 03:54:41;;;;;;;13.38;7.03;;;14.70;99.90;;;;;;5015131;28;20168;-85
2021/10/02 03:57:07;;;;;;;18.05;7.05;;;14.80;99.90;;;;;;5015157;28;20282;-81
2021/10/02 03:59:34;;;;;;;8.93;6.95;;;14.70;99.90;;;;;;5015428;28;20224;-81
2021/10/02 04:01:59;;;;;;;20.98;7.45;;;14.70;99.90;;;;;;5015188;28;20173;-80
2021/10/02 04:04:25;;;;;;;17.70;7.35;;;14.80;99.90;;;;;;5014812;28;20164;-81
2021/10/02 04:06:51;;;;;;;7.28;6.57;;;14.90;99.90;;;;;;5014832;28;20165;-83
2021/10/02 04:09:18;;;;;;;10.98;6.70;;;14.80;99.90;;;;;;5015237;28;20187;-84
2021/10/02 04:11:44;;;;;;;13.15;7.65;;;14.80;99.90;;;;;;5014813;28;20626;-81
2021/10/02 04:14:10;;;;;;;11.80;6.32;;;14.80;99.90;;;;;;5015122;28;20172;-82
2021/10/02 04:16:36;;;;;;;7.78;6.80;;;14.90;99.90;;;;;;5013326;28;20270;-85
2021/10/02 04:19:03;;;;;;;12.38;6.38;;;14.80;99.90;;;;;;5014179;28;20185;-84
2021/10/02 04:21:28;;;;;;;13.85;7.45;;;14.90;99.90;;;;;;5014943;28;20168;-80
2021/10/02 04:23:54;;;;;;;14.45;7.90;;;14.90;99.90;;;;;;5014941;28;20173;-79
2021/10/02 04:26:21;;;;;;;8.52;7.05;;;15.20;99.90;;;;;;5014693;28;20633;-82
2021/10/02 04:28:49;;;;;;;15.55;7.70;;;15.20;99.90;;;;;;5014964;28;20192;-79
2021/10/02 04:31:16;;;;;;;10.93;7.25;;;15.20;99.90;;;;;;5014623;28;20168;-80
2021/10/02 04:33:42;;;;;;;9.70;7.57;;;15.20;99.90;;;;;;4976182;28;1144031;-82
2021/10/02 04:36:07;;;;;;;9.60;7.22;;;15.10;99.90;;;;;;5015632;28;20672;-80
2021/10/02 04:38:33;;;;;;;8.05;7.22;;;15.00;99.90;;;;;;5015419;28;20191;-81
2021/10/02 04:40:59;;;;;;;8.85;7.28;;;14.80;99.90;;;;;;5014502;28;20322;-85
2021/10/02 04:43:24;;;;;;;10.75;7.60;;;15.00;99.90;;;;;;5015552;28;20176;-83
2021/10/02 04:45:50;;;;;;;13.10;8.10;;;14.90;99.90;;;;;;5014701;28;20219;-83
2021/10/02 04:48:16;;;;;;;16.92;7.50;;;14.80;99.90;;;;;;5013997;28;20533;-81
2021/10/02 04:50:41;;;;;;;9.38;8.43;;;14.80;99.90;;;;;;5014945;28;20173;-83
2021/10/02 04:53:07;;;;;;;15.40;7.80;;;14.80;99.90;;;;;;5015332;28;20698;-80
2021/10/02 04:55:33;;;;;;;11.02;8.60;;;14.70;99.90;;;;;;5015117;28;20183;-85
2021/10/02 04:57:58;;;;;;;9.70;8.73;;;14.80;99.90;;;;;;5015138;28;20165;-83
2021/10/02 05:00:24;;;;;;;17.27;8.48;;;14.80;99.90;;;;;;5015263;28;20276;-80
2021/10/02 05:02:50;;;;;;;11.52;7.78;;;14.80;99.90;;;;;;5015098;28;20172;-82
2021/10/02 05:05:16;;;;;;;9.00;8.27;;;14.80;99.90;;;;;;5014821;28;20168;-85
2021/10/02 05:07:42;;;;;;;9.35;8.48;;;14.90;99.90;;;;;;5015135;28;20169;-82
2021/10/02 05:10:08;;;;;;;17.75;8.85;;;15.00;99.90;;;;;;5015167;28;20188;-85
2021/10/02 05:12:34;;;;;;;11.90;8.55;;;15.10;99.90;;;;;;5014944;28;20168;-80
2021/10/02 05:14:59;;;;;;;13.82;9.60;;;15.20;99.90;;;;;;5013545;28;20272;-80
2021/10/02 05:17:25;;;;;;;15.90;9.60;;;15.30;99.90;;;;;;5014640;28;20259;-82
2021/10/02 05:19:54;;;;;;;15.52;9.82;;;15.40;99.90;;;;;;5014391;28;20217;-83
2021/10/02 05:22:20;;;;;;;11.25;8.43;;;15.30;99.90;;;;;;5014772;28;20287;-81
2021/10/02 05:24:45;;;;;;;13.57;9.57;;;15.30;99.90;;;;;;5013892;28;20676;-81
2021/10/02 05:27:12;;;;;;;11.82;9.88;;;15.40;99.90;;;;;;5013869;28;20176;-80
2021/10/02 05:29:39;;;;;;;13.10;10.18;;;15.30;99.90;;;;;;5012969;28;20253;-81
2021/10/02 05:32:07;;;;;;;20.42;7.75;;;15.30;99.90;;;;;;5014131;28;20156;-80
2021/10/02 05:34:33;;;;;;;13.60;9.85;;;15.20;99.90;;;;;;5013750;28;20637;-83
2021/10/02 05:36:59;;;;;;;13.48;9.50;;;15.30;99.90;;;;;;5014021;28;20208;-82
2021/10/02 05:39:25;;;;;;;11.88;9.38;;;15.30;99.90;;;;;;5014230;28;20203;-84
2021/10/02 05:41:51;;;;;;;22.15;10.43;;;15.10;99.90;;;;;;5014244;28;20554;-81
2021/10/02 05:44:17;;;;;;;18.13;10.02;;;15.00;99.90;;;;;;5013976;28;20629;-82
2021/10/02 05:46:42;;;;;;;15.32;9.27;;;14.90;99.90;;;;;;5013904;28;20283;-82
2021/10/02 05:49:08;;;;;;;17.08;9.60;;;14.80;99.90;;;;;;5014151;28;20184;-80
2021/10/02 05:51:34;;;;;;;10.40;9.10;;;14.80;99.90;;;;;;5013769;28;20633;-79
2021/10/02 05:53:59;;;;;;;16.30;9.57;;;14.90;99.90;;;;;;5012502;28;20177;-80
2021/10/02 05:56:25;;;;;;;9.60;8.02;;;14.80;99.90;;;;;;5013908;28;20212;-82
2021/10/02 05:58:51;;;;;;;12.95;9.05;;;14.90;99.90;;;;;;5013463;28;20657;-84
2021/10/02 06:01:18;;;;;;;27.23;8.88;;;15.10;99.90;;;;;;5013627;28;20164;-81
2021/10/02 06:03:45;;;;;;;12.05;9.63;;;15.20;99.90;;;;;;5013184;28;20169;-80
2021/10/02 06:06:11;;;;;;;12.10;8.40;;;15.30;99.90;;;;;;5013666;28;20157;-80
2021/10/02 06:08:37;;;;;;;12.50;7.75;;;15.30;99.90;;;;;;5014268;28;20200;-83
2021/10/02 06:11:02;;;;;;;8.90;7.60;;;15.10;99.90;;;;;;5013158;28;20161;-82
2021/10/02 06:13:28;;;;;;;10.98;8.20;;;15.10;99.90;;;;;;5013320;28;20529;-85
2021/10/02 06:15:54;;;;;;;12.60;7.32;;;15.30;99.90;;;;;;5012843;28;20512;-85
2021/10/02 06:18:20;;;;;;;17.00;6.88;;;15.30;99.90;;;;;;5013065;28;20180;-82
2021/10/02 06:20:45;;;;;;;13.52;7.13;;;15.30;99.90;;;;;;5012137;28;20168;-80
2021/10/02 06:23:11;;;;;;;16.23;7.05;;;15.30;99.90;;;;;;5013145;28;20223;-83
2021/10/02 06:25:36;;;;;;;13.15;7.15;;;15.30;99.90;;;;;;5013414;28;20175;-83
2021/10/02 06:28:02;;;;;;;8.63;7.38;;;15.50;99.90;;;;;;5013500;28;20171;-79
2021/10/02 06:30:28;;;;;;;11.13;7.43;;;15.40;99.90;;;;;;5012865;28;20188;-81
2021/10/02 06:32:54;;;;;;;9.55;7.68;;;15.30;99.90;;;;;;5012042;28;20263;-80
2021/10/02 06:35:19;;;;;;;15.23;7.80;;;15.30;99.90;;;;;;5012229;28;20175;-82
2021/10/02 06:37:45;;;;;;;14.05;7.20;;;15.30;99.90;;;;;;5012582;28;20215;-79
2021/10/02 06:40:12;;;;;;;14.43;7.90;;;15.20;99.90;;;;;;5013209;28;20561;-83
2021/10/02 06:42:38;;;;;;;9.50;7.22;;;15.20;99.90;;;;;;5012992;28;20251;-80
2021/10/02 06:45:07;;;;;;;13.07;6.85;;;15.30;99.90;;;;;;5012990;28;20587;-80
2021/10/02 06:47:33;;;;;;;12.90;8.27;;;15.40;99.90;;;;;;5012709;28;20180;-83
2021/10/02 06:50:00;;;;;;;12.30;8.57;;;15.40;99.90;;;;;;5012690;28;20189;-82
2021/10/02 06:52:29;;;;;;;15.05;8.95;;;15.60;99.90;;;;;;5012647;28;20259;-81
2021/10/02 06:54:56;;;;;;;21.58;10.20;;;15.70;99.90;;;;;;5012484;28;20204;-82
2021/10/02 06:57:22;;;;;;;15.50;10.95;;;15.60;99.90;;;;;;5012502;28;20565;-79
2021/10/02 06:59:48;;;;;;;14.90;11.52;;;15.40;99.90;;;;;;5012709;28;20208;-80
2021/10/02 07:02:14;;;;;;;13.85;9.88;;;15.50;99.90;;;;;;5012949;28;20172;-79
2021/10/02 07:04:40;;;;;;;14.82;10.32;;;15.50;99.90;;;;;;5012784;28;20176;-81
2021/10/02 07:07:06;;;;;;;12.50;8.57;;;15.40;99.90;;;;;;5044272;28;20176;-79
2021/10/02 07:09:32;;;;;;;19.80;9.57;;;15.50;99.90;;;;;;5010954;28;20556;-84
2021/10/02 07:11:58;;;;;;;26.67;8.90;;;15.50;99.90;;;;;;5011254;28;20505;-83
2021/10/02 07:14:24;;;;;;;11.85;7.88;;;15.80;99.90;;;;;;5012679;28;20183;-79
2021/10/02 07:16:50;;;;;;;8.52;7.68;;;15.90;99.90;;;;;;5012701;28;20211;-79
2021/10/02 07:19:16;;;;;;;13.85;7.10;;;15.90;99.90;;;;;;5012350;28;20188;-78
2021/10/02 07:21:42;;;;;;;8.55;5.78;;;16.00;99.90;;;;;;5012711;28;20172;-79
2021/10/02 07:24:08;;;;;;;13.00;7.57;;;16.20;99.90;;;;;;5012591;28;20534;-80
2021/10/02 07:26:34;;;;;;;11.88;6.55;;;16.50;99.90;;;;;;5012808;28;20251;-81
2021/10/02 07:29:01;;;;;;;11.27;6.82;;;16.50;99.90;;;;;;5012381;28;20188;-80
2021/10/02 07:31:27;;;;;;;9.20;5.65;;;16.20;99.90;;;;;;5012625;28;20614;-80
2021/10/02 07:33:53;;;;;;;9.38;6.07;;;16.20;99.90;;;;;;5012280;28;20208;-77
2021/10/02 07:36:20;;;;;;;10.43;5.20;;;16.20;99.90;;;;;;5012361;28;20727;-80
2021/10/02 07:38:46;;;;;;;12.82;5.22;;;16.10;99.90;;;;;;5012471;28;20216;-76
2021/10/02 07:41:17;;;;;;;14.50;5.10;;;16.20;99.90;;;;;;5012423;28;20700;-80
2021/10/02 07:43:44;;;;;;;14.98;5.22;;;16.20;99.90;;;;;;5012762;28;20168;-79
2021/10/02 07:46:12;;;;;;;5.97;4.75;;;15.90;99.90;;;;;;5012333;28;20187;-83
2021/10/02 07:48:40;;;;;;;10.52;5.38;;;15.90;99.90;;;;;;5010914;28;20275;-82
2021/10/02 07:51:06;;;;;;;6.90;4.53;;;16.00;99.90;;;;;;5013650;28;20706;-85
2021/10/02 07:53:32;;;;;;;5.80;4.80;;;16.20;99.90;;;;;;5015610;28;20544;-81
2021/10/02 07:56:03;;;;;;;13.75;4.95;;;16.10;99.90;;;;;;5015328;28;20176;-82
2021/10/02 07:58:29;;;;;;;16.65;4.30;;;16.20;99.90;;;;;;5018102;28;20195;-81
2021/10/02 08:00:58;;;;;;;7.72;4.13;;;16.20;99.90;;;;;;5021416;28;20179;-78
2021/10/02 08:03:24;;;;;;;9.55;4.45;;;16.20;99.90;;;;;;5022278;28;20165;-82
2021/10/02 08:05:50;;;;;;;13.40;5.07;;;16.20;99.90;;;;;;5020978;28;20183;-80
2021/10/02 08:08:17;;;;;;;17.02;4.40;;;16.20;99.90;;;;;;5020292;28;20164;-80
2021/10/02 08:10:45;;;;;;;9.45;3.72;;;16.10;99.90;;;;;;5020785;28;20263;-80
2021/10/02 08:13:12;;;;;;;4.63;3.80;;;16.40;99.90;;;;;;5022976;28;20161;-81
2021/10/02 08:15:42;;;;;;;8.48;3.30;;;16.30;99.90;;;;;;5021606;28;20164;-86
2021/10/02 08:18:11;;;;;;;8.48;3.22;;;15.90;99.90;;;;;;5018715;28;20215;-78
2021/10/02 08:20:39;;;;;;;5.28;2.65;;;15.70;99.90;;;;;;5018253;28;20189;-78
2021/10/02 08:23:05;;;;;;;8.43;2.80;;;16.00;99.90;;;;;;5016312;28;20175;-81
2021/10/02 08:25:32;;;;;;;12.55;2.88;;;16.10;99.90;;;;;;5014174;28;20172;-80
2021/10/02 08:27:59;;;;;;;10.02;3.25;;;16.50;99.90;;;;;;5011653;28;20610;-82
2021/10/02 08:30:26;;;;;;;8.15;3.35;;;16.80;99.90;;;;;;5013475;28;20680;-82
2021/10/02 08:32:52;;;;;;;10.73;2.30;;;16.90;99.90;;;;;;5014873;28;20195;-80
2021/10/02 08:35:17;;;;;;;5.00;2.83;;;16.90;99.90;;;;;;5015354;28;20175;-79
2021/10/02 08:37:43;;;;;;;4.85;2.45;;;17.20;99.90;;;;;;5014242;28;20212;-82
2021/10/02 08:40:12;;;;;;;5.75;2.25;;;17.30;99.90;;;;;;5014358;28;20184;-82
2021/10/02 08:42:39;;;;;;;5.72;2.28;;;17.40;99.90;;;;;;5015074;28;20230;-82
2021/10/02 08:45:07;;;;;;;4.10;2.10;;;17.20;99.90;;;;;;5014475;28;20172;-83
2021/10/02 08:47:37;;;;;;;7.65;3.05;;;17.40;99.90;;;;;;5014128;28;20184;-83
2021/10/02 08:50:05;;;;;;;7.95;2.40;;;17.50;99.90;;;;;;5014364;28;20653;-82
2021/10/02 08:52:31;;;;;;;3.10;2.30;;;17.20;99.90;;;;;;5014494;28;20204;-79
2021/10/02 08:54:59;;;;;;;4.13;2.17;;;17.30;99.90;;;;;;5014659;28;20196;-83
2021/10/02 08:57:26;;;;;;;2.95;2.30;;;17.30;99.90;;;;;;5014473;28;20206;-81
2021/10/02 08:59:54;;;;;;;9.40;2.83;;;17.10;99.90;;;;;;5014396;28;20593;-80
2021/10/02 09:02:21;;;;;;;3.33;2.00;;;17.10;99.90;;;;;;5013230;28;20211;-82
2021/10/02 09:04:48;;;;;;;11.13;2.65;;;17.30;99.90;;;;;;5014514;28;20534;-79
2021/10/02 09:07:16;;;;;;;9.70;2.50;;;17.30;99.90;;;;;;5014503;28;20204;-83
2021/10/02 09:09:43;;;;;;;9.65;2.67;;;17.40;99.90;;;;;;5014456;28;20374;-83
2021/10/02 09:12:11;;;;;;;7.07;2.45;;;17.50;99.90;;;;;;5012954;28;20547;-84
2021/10/02 09:14:37;;;;;;;5.82;1.77;;;17.30;99.90;;;;;;5014316;28;20164;-84
2021/10/02 09:17:06;;;;;;;4.63;1.90;;;17.10;99.90;;;;;;5012931;28;20200;-84
2021/10/02 09:19:32;;;;;;;4.40;1.98;;;17.10;99.90;;;;;;5013839;28;20212;-83
2021/10/02 09:22:04;;;;;;;5.18;1.70;;;17.20;99.90;;;;;;5013317;28;20630;-84
2021/10/02 09:24:35;;;;;;;5.10;1.70;;;17.30;99.90;;;;;;5013966;28;20248;-84
2021/10/02 09:27:01;;;;;;;8.75;2.10;;;17.20;99.90;;;;;;5013893;28;20172;-82
2021/10/02 09:29:40;;;;;;;4.38;1.98;;;17.30;99.90;;;;;;5013895;28;20242;-81
2021/10/02 09:32:09;;;;;;;3.95;1.98;;;17.60;99.90;;;;;;5012605;28;20525;-79
2021/10/02 09:34:46;;;;;;;4.30;1.77;;;17.60;99.90;;;;;;5013738;28;20629;-80
2021/10/02 09:37:24;;;;;;;7.32;1.63;;;17.70;99.90;;;;;;5014429;28;20253;-80
2021/10/02 09:39:51;;;;;;;6.78;1.90;;;17.90;99.90;;;;;;5013828;28;20184;-80
2021/10/02 09:42:25;;;;;;;4.40;1.50;;;17.90;99.90;;;;;;5013555;28;20229;-81
2021/10/02 09:44:52;;;;;;;1.70;1.60;;;18.20;99.90;;;;;;5013015;28;20168;-81
2021/10/02 09:47:18;;;;;;;2.92;1.40;;;18.50;99.90;;;;;;5013410;28;20252;-82
2021/10/02 09:49:46;;;;;;;3.05;1.60;;;18.60;99.90;;;;;;5013100;28;20192;-80
2021/10/02 09:52:37;;;;;;;4.97;1.80;;;18.60;99.90;;;;;;5013210;28;20168;-81
2021/10/02 09:55:16;;;;;;;2.10;1.23;;;18.40;99.90;;;;;;5009777;28;20274;-81
2021/10/02 09:57:44;;;;;;;1.45;1.15;;;18.20;99.90;;;;;;5028197;28;20231;-79
2021/10/02 10:00:13;;;;;;;3.53;1.45;;;17.90;99.90;;;;;;5014599;28;20184;-81
2021/10/02 10:02:40;;;;;;;2.42;1.38;;;17.60;99.90;;;;;;5012224;28;20177;-82
2021/10/02 10:05:08;;;;;;;4.43;1.67;;;17.50;99.90;;;;;;5013066;28;20165;-80
2021/10/02 10:07:34;;;;;;;1.98;1.17;;;17.70;99.90;;;;;;5012923;28;20226;-82
2021/10/02 10:10:02;;;;;;;2.35;1.30;;;17.90;99.90;;;;;;5013078;28;20192;-82
2021/10/02 10:12:29;;;;;;;4.20;1.60;;;17.90;99.90;;;;;;5012760;28;20223;-81
2021/10/02 10:14:55;;;;;;;1.02;0.93;;;17.90;99.90;;;;;;5013096;28;20223;-80
2021/10/02 10:17:21;;;;;;;1.73;1.13;;;17.80;99.90;;;;;;5013315;28;20214;-79
2021/10/02 10:19:47;;;;;;;6.68;1.58;;;17.90;99.90;;;;;;5012961;28;20189;-80
2021/10/02 10:22:16;;;;;;;3.25;1.63;;;17.50;99.90;;;;;;5013082;28;20199;-82
2021/10/02 10:24:52;;;;;;;2.92;1.25;;;17.60;99.90;;;;;;5012040;28;20618;-81
2021/10/02 10:27:44;;;;;;;5.05;1.73;;;17.80;99.90;;;;;;5012933;28;20564;-82
2021/10/02 10:30:13;;;;;;;5.25;1.73;;;18.10;99.90;;;;;;5012191;28;20181;-82
2021/10/02 10:33:01;;;;;;;1.83;1.00;;;18.30;99.90;;;;;;5013056;28;20264;-82
2021/10/02 10:35:30;;;;;;;2.60;1.20;;;18.30;99.90;;;;;;5011456;28;20591;-81
2021/10/02 10:37:56;;;;;;;5.10;1.10;;;18.50;99.90;;;;;;5012709;28;20262;-84
2021/10/02 10:40:22;;;;;;;3.45;1.00;;;18.40;99.90;;;;;;5012462;28;20188;-81
2021/10/02 10:42:47;;;;;;;1.98;1.00;;;18.40;99.90;;;;;;5012543;28;20173;-81
2021/10/02 10:45:13;;;;;;;3.85;1.30;;;18.50;99.90;;;;;;5013714;28;20582;-80
2021/10/02 10:47:39;;;;;;;3.65;1.35;;;18.20;99.90;;;;;;5018695;28;20168;-80
2021/10/02 10:50:05;;;;;;;2.90;1.30;;;18.20;99.90;;;;;;5020357;28;20176;-80
2021/10/02 10:52:37;;;;;;;1.38;1.02;;;18.20;99.90;;;;;;5017468;28;20203;-80
2021/10/02 10:55:20;;;;;;;1.75;1.00;;;18.40;99.90;;;;;;5016188;28;20695;-80
2021/10/02 10:57:55;;;;;;;4.53;2.28;;;18.50;99.90;;;;;;5030092;28;20234;-78
2021/10/02 11:00:31;;;;;;;2.88;1.85;;;18.60;99.90;;;;;;5034698;28;20172;-80
2021/10/02 11:03:01;;;;;;;2.75;1.45;;;18.70;99.90;;;;;;5035500;28;20175;-81
2021/10/02 11:05:36;;;;;;;4.53;1.27;;;18.80;99.90;;;;;;5034336;28;20148;-80
2021/10/02 11:08:06;;;;;;;2.65;1.35;;;18.70;99.90;;;;;;5033480;28;20193;-79
2021/10/02 11:10:44;;;;;;;3.35;1.40;;;18.80;99.90;;;;;;5017508;28;20188;-80
2021/10/02 11:13:09;;;;;;;5.93;1.73;;;18.60;99.90;;;;;;5012779;28;20176;-80
2021/10/02 11:15:35;;;;;;;2.65;1.27;;;18.40;99.90;;;;;;5012711;28;20222;-81
2021/10/02 11:18:00;;;;;;;4.75;1.30;;;18.40;99.90;;;;;;5012455;28;20208;-82
2021/10/02 11:20:26;;;;;;;3.78;1.60;;;18.50;99.90;;;;;;5012699;28;20588;-84
2021/10/02 11:23:29;;;;;;;3.15;1.70;;;18.60;99.90;;;;;;5012414;28;20173;-82
2021/10/02 11:26:11;;;;;;;2.15;1.15;;;18.80;99.90;;;;;;5015047;28;20168;-80
2021/10/02 11:28:37;;;;;;;2.78;1.33;;;18.90;99.90;;;;;;5016044;28;20652;-81
2021/10/02 11:31:12;;;;;;;3.83;1.45;;;18.60;99.90;;;;;;5016298;28;20192;-81
2021/10/02 11:33:47;;;;;;;3.28;1.10;;;18.60;99.90;;;;;;5016179;28;20214;-80
2021/10/02 11:36:28;;;;;;;1.85;1.23;;;18.70;99.90;;;;;;5015897;28;20286;-82
2021/10/02 11:39:11;;;;;;;5.47;1.38;;;19.00;99.90;;;;;;5015536;28;20224;-81
2021/10/02 11:41:46;;;;;;;3.50;1.13;;;19.00;99.90;;;;;;5016153;28;20164;-81
2021/10/02 11:44:13;;;;;;;3.13;1.08;;;19.00;99.90;;;;;;5015933;28;20179;-81
2021/10/02 11:46:39;;;;;;;3.50;1.17;;;18.80;99.90;;;;;;5015865;28;20172;-81
2021/10/02 11:49:19;;;;;;;2.20;1.02;;;18.70;99.90;;;;;;5015441;28;20188;-81
2021/10/02 11:52:17;;;;;;;7.13;1.25;;;18.90;99.90;;;;;;5015573;28;20171;-81
2021/10/02 11:54:43;;;;;;;1.48;1.00;;;19.10;99.90;;;;;;5003726;28;20234;-80
2021/10/02 11:57:14;;;;;;;3.38;0.80;;;19.20;99.90;;;;;;5015706;28;20255;-76
2021/10/02 11:59:44;;;;;;;3.00;1.10;;;19.10;99.90;;;;;;5015499;28;20315;-76
2021/10/02 12:02:11;;;;;;;2.08;1.08;;;18.90;99.90;;;;;;5015644;28;20169;-76
2021/10/02 12:04:38;;;;;;;9.23;1.42;;;18.90;99.90;;;;;;5015588;28;20165;-79
2021/10/02 12:07:04;;;;;;;3.58;0.93;;;18.80;99.90;;;;;;5030461;28;20205;-76
2021/10/02 12:09:30;;;;;;;3.08;1.23;;;19.00;99.90;;;;;;5015263;28;20228;-78
2021/10/02 12:11:57;;;;;;;2.22;1.20;;;19.00;99.90;;;;;;5015252;28;20223;-82
2021/10/02 12:14:25;;;;;;;2.90;1.02;;;18.90;99.90;;;;;;5015285;28;20173;-78
2021/10/02 12:17:02;;;;;;;2.95;1.20;;;18.80;99.90;;;;;;5005964;28;20218;-84
2021/10/02 12:19:30;;;;;;;4.72;1.33;;;18.80;99.90;;;;;;5001908;28;20239;-79
2021/10/02 12:22:01;;;;;;;4.03;1.27;;;18.90;99.90;;;;;;4994991;28;20256;-81
2021/10/02 12:24:32;;;;;;;3.00;1.20;;;19.00;99.90;;;;;;4995280;28;20224;-77
2021/10/02 12:27:01;;;;;;;2.53;1.15;;;18.90;99.90;;;;;;4995277;28;20173;-80
2021/10/02 12:29:28;;;;;;;3.38;1.30;;;18.90;99.90;;;;;;4993862;28;20739;-80
2021/10/02 12:32:05;;;;;;;4.65;1.00;;;18.60;99.90;;;;;;4995772;28;20220;-80
2021/10/02 12:35:03;;;;;;;1.13;0.90;;;18.60;99.90;;;;;;4995341;28;20680;-84
2021/10/02 12:37:32;;;;;;;3.80;0.98;;;18.50;99.90;;;;;;4972748;28;20216;-80
2021/10/02 12:40:07;;;;;;;5.82;1.45;;;18.40;99.90;;;;;;4995403;28;20654;-79
2021/10/02 12:42:37;;;;;;;3.90;0.95;;;18.50;99.90;;;;;;4995343;28;20203;-85
2021/10/02 12:45:08;;;;;;;1.13;0.90;;;18.50;99.90;;;;;;4995183;28;20169;-80
2021/10/02 12:47:34;;;;;;;3.13;1.45;;;18.50;99.90;;;;;;4995208;28;20235;-85
2021/10/02 12:50:03;;;;;;;4.78;1.15;;;18.60;99.90;;;;;;4995207;28;20665;-79
2021/10/02 12:52:30;;;;;;;4.43;1.20;;;18.70;99.90;;;;;;4995110;28;20263;-81
2021/10/02 12:54:57;;;;;;;9.13;1.20;;;18.80;99.90;;;;;;4994843;28;20224;-79
2021/10/02 12:57:24;;;;;;;5.05;0.80;;;19.00;99.90;;;;;;4994952;28;20204;-78
2021/10/02 12:59:58;;;;;;;2.05;0.98;;;19.20;99.90;;;;;;4994633;28;20201;-79
2021/10/02 13:02:24;;;;;;;5.18;0.88;;;19.20;99.90;;;;;;4995027;28;20172;-81
2021/10/02 13:04:50;;;;;;;6.53;1.30;;;19.20;99.90;;;;;;4995120;28;20173;-83
2021/10/02 13:07:34;;;;;;;2.20;1.08;;;19.30;99.90;;;;;;4994583;28;20173;-80
2021/10/02 13:10:01;;;;;;;2.65;1.17;;;19.30;99.90;;;;;;4994961;28;20213;-83
2021/10/02 13:12:33;;;;;;;2.15;0.80;;;19.10;99.90;;;;;;4994776;28;20169;-79
2021/10/02 13:15:00;;;;;;;2.38;0.80;;;19.00;99.90;;;;;;4993365;28;20192;-80
2021/10/02 13:17:26;;;;;;;4.97;1.08;;;18.90;99.90;;;;;;4994561;28;20232;-81
2021/10/02 13:20:24;;;;;;;8.73;1.00;;;18.90;99.90;;;;;;4994118;28;20247;-81
2021/10/02 13:22:50;;;;;;;1.48;0.80;;;19.00;99.90;;;;;;4993434;28;20634;-83
2021/10/02 13:25:24;;;;;;;4.32;1.20;;;19.00;99.90;;;;;;4994476;28;20173;-83
2021/10/02 13:27:54;;;;;;;3.35;1.95;;;19.00;99.90;;;;;;4994244;28;20629;-82
2021/10/02 13:30:30;;;;;;;2.28;1.08;;;18.70;99.90;;;;;;4994306;28;20189;-85
2021/10/02 13:32:58;;;;;;;4.20;1.33;;;18.60;99.90;;;;;;4994604;28;20219;-83
2021/10/02 13:35:26;;;;;;;3.65;1.00;;;18.70;99.90;;;;;;4994627;28;20178;-77
2021/10/02 13:37:52;;;;;;;3.28;1.60;;;18.70;99.90;;;;;;4994495;28;20355;-85
2021/10/02 13:40:25;;;;;;;4.15;1.50;;;18.70;99.90;;;;;;4994735;28;20197;-86
2021/10/02 13:42:53;;;;;;;2.95;1.23;;;18.80;99.90;;;;;;4995523;28;20165;-81
2021/10/02 13:45:24;;;;;;;4.57;1.50;;;19.10;99.90;;;;;;4997550;28;20235;-78
2021/10/02 13:47:55;;;;;;;1.90;1.38;;;19.10;99.90;;;;;;4995125;28;20189;-79
2021/10/02 13:50:20;;;;;;;3.47;1.38;;;18.90;99.90;;;;;;4993885;28;20197;-84